Time;durP1;ratioP1;P1;durP2;ratioP2;P2;SDS_P1;SDS_P2;PMS_P1;PMS_P2;Temp;Humidity;BMP_temperature;BMP_pressure;BME280_temperature;BME280_humidity;BME280_pressure;Samples;Min_cycle;Max_cycle;Signal;HPM_P1;HPM_P2
2022/03/01 00:00:19;;;;;;;9.88;4.82;;;;;;;;;;5005445;28;20060;-72
2022/03/01 00:02:45;;;;;;;9.13;5.03;;;;;;;;;;4983813;28;20137;-72
2022/03/01 00:05:10;;;;;;;9.88;5.40;;;;;;;;;;5010845;28;20066;-72
2022/03/01 00:07:35;;;;;;;11.27;5.10;;;;;;;;;;5008024;28;20057;-73
2022/03/01 00:10:01;;;;;;;10.82;5.25;;;;;;;;;;5010314;28;20452;-73
2022/03/01 00:12:26;;;;;;;9.10;4.80;;;;;;;;;;5019224;28;20032;-71
2022/03/01 00:14:52;;;;;;;9.52;5.03;;;;;;;;;;5000078;28;20049;-71
2022/03/01 00:17:17;;;;;;;9.73;5.28;;;;;;;;;;5015052;28;20124;-72
2022/03/01 00:19:42;;;;;;;9.35;5.18;;;;;;;;;;4987186;28;20026;-72
2022/03/01 00:22:08;;;;;;;12.63;5.60;;;;;;;;;;5008555;28;20034;-72
2022/03/01 00:24:33;;;;;;;8.23;4.93;;;;;;;;;;4998130;28;20055;-72
2022/03/01 00:26:58;;;;;;;10.10;5.27;;;;;;;;;;5011225;28;20495;-71
2022/03/01 00:29:23;;;;;;;11.10;5.40;;;;;;;;;;5006065;28;20268;-72
2022/03/01 00:31:49;;;;;;;11.23;5.63;;;;;;;;;;4995269;28;20306;-72
2022/03/01 00:34:14;;;;;;;12.07;5.60;;;;;;;;;;5011430;28;20286;-71
2022/03/01 00:36:39;;;;;;;9.40;5.55;;;;;;;;;;5010597;28;20041;-73
2022/03/01 00:39:05;;;;;;;7.70;4.63;;;;;;;;;;5014149;28;20029;-73
2022/03/01 00:41:31;;;;;;;11.20;5.18;;;;;;;;;;5009813;28;20042;-73
2022/03/01 00:43:56;;;;;;;9.95;5.30;;;;;;;;;;5010212;28;20091;-72
2022/03/01 00:46:23;;;;;;;8.23;4.68;;;;;;;;;;4983607;28;20041;-71
2022/03/01 00:48:48;;;;;;;9.63;4.78;;;;;;;;;;5009943;28;20644;-73
2022/03/01 00:51:14;;;;;;;8.60;5.20;;;;;;;;;;5008916;28;20092;-73
2022/03/01 00:53:39;;;;;;;8.90;5.00;;;;;;;;;;4994809;28;20461;-73
2022/03/01 00:56:04;;;;;;;8.65;4.88;;;;;;;;;;5000980;28;20342;-73
2022/03/01 00:58:31;;;;;;;8.82;4.80;;;;;;;;;;5013971;28;20029;-73
2022/03/01 01:00:56;;;;;;;9.43;5.05;;;;;;;;;;4986649;28;20042;-73
2022/03/01 01:03:21;;;;;;;9.50;4.75;;;;;;;;;;4995648;28;20504;-73
2022/03/01 01:05:46;;;;;;;8.03;5.00;;;;;;;;;;4995959;28;20045;-73
2022/03/01 01:08:12;;;;;;;9.55;4.70;;;;;;;;;;5009439;28;20103;-72
2022/03/01 01:10:37;;;;;;;8.43;4.53;;;;;;;;;;5006456;28;20038;-72
2022/03/01 01:13:02;;;;;;;8.45;5.30;;;;;;;;;;4995701;28;20045;-74
2022/03/01 01:15:28;;;;;;;7.60;4.70;;;;;;;;;;5012218;28;20078;-74
2022/03/01 01:17:53;;;;;;;10.07;4.93;;;;;;;;;;5012475;28;20061;-74
2022/03/01 01:20:18;;;;;;;6.43;4.70;;;;;;;;;;5009777;28;20329;-74
2022/03/01 01:22:43;;;;;;;9.97;5.13;;;;;;;;;;4990861;28;20058;-74
2022/03/01 01:25:14;;;;;;;11.05;5.13;;;;;;;;;;4994866;28;20286;-74
2022/03/01 01:27:42;;;;;;;9.05;5.30;;;;;;;;;;5011399;28;20030;-74
2022/03/01 01:30:11;;;;;;;9.30;5.20;;;;;;;;;;4992606;28;20516;-74
2022/03/01 01:32:36;;;;;;;8.55;5.07;;;;;;;;;;5001720;28;20030;-74
2022/03/01 01:35:02;;;;;;;8.43;4.57;;;;;;;;;;4983016;28;20045;-75
2022/03/01 01:37:28;;;;;;;8.15;5.15;;;;;;;;;;5013289;28;20046;-75
2022/03/01 01:39:53;;;;;;;9.88;5.13;;;;;;;;;;4998846;28;20042;-74
2022/03/01 01:42:19;;;;;;;10.68;5.50;;;;;;;;;;4989155;28;20668;-74
2022/03/01 01:44:44;;;;;;;11.18;5.60;;;;;;;;;;4991065;28;20042;-73
2022/03/01 01:47:09;;;;;;;9.30;4.82;;;;;;;;;;5012126;28;20133;-72
2022/03/01 01:49:35;;;;;;;9.57;5.05;;;;;;;;;;4990614;28;20116;-73
2022/03/01 01:52:00;;;;;;;13.57;4.95;;;;;;;;;;4990512;28;20034;-73
2022/03/01 01:54:25;;;;;;;10.07;5.35;;;;;;;;;;4990833;28;20611;-73
2022/03/01 01:56:50;;;;;;;11.93;5.60;;;;;;;;;;5015605;28;20131;-73
2022/03/01 01:59:16;;;;;;;9.20;4.80;;;;;;;;;;5009123;28;20268;-73
2022/03/01 02:01:41;;;;;;;9.07;4.63;;;;;;;;;;5010148;28;20271;-74
2022/03/01 02:04:07;;;;;;;9.65;5.18;;;;;;;;;;5006252;28;20357;-72
2022/03/01 02:06:35;;;;;;;9.13;4.78;;;;;;;;;;5001569;28;20126;-71
2022/03/01 02:09:00;;;;;;;9.02;5.07;;;;;;;;;;5005890;28;20061;-74
2022/03/01 02:11:26;;;;;;;9.45;5.05;;;;;;;;;;5005480;28;20038;-73
2022/03/01 02:13:51;;;;;;;8.77;4.65;;;;;;;;;;5005305;28;20045;-73
2022/03/01 02:16:16;;;;;;;9.07;4.73;;;;;;;;;;4991206;28;20038;-74
2022/03/01 02:18:42;;;;;;;7.80;4.97;;;;;;;;;;5001019;28;20283;-75
2022/03/01 02:21:07;;;;;;;8.98;4.93;;;;;;;;;;5000238;28;20080;-74
2022/03/01 02:23:32;;;;;;;8.15;4.93;;;;;;;;;;4992302;28;20416;-74
2022/03/01 02:25:58;;;;;;;10.30;5.38;;;;;;;;;;4986499;28;20107;-75
2022/03/01 02:28:23;;;;;;;9.60;5.00;;;;;;;;;;4998620;28;20034;-75
2022/03/01 02:30:48;;;;;;;10.77;5.18;;;;;;;;;;5010305;28;20260;-75
2022/03/01 02:33:13;;;;;;;7.80;4.75;;;;;;;;;;4994816;28;20030;-74
2022/03/01 02:35:39;;;;;;;9.90;4.53;;;;;;;;;;4996036;28;20029;-75
2022/03/01 02:38:04;;;;;;;10.75;5.40;;;;;;;;;;5012200;28;20038;-74
2022/03/01 02:40:30;;;;;;;10.98;5.03;;;;;;;;;;5013614;28;20492;-73
2022/03/01 02:42:55;;;;;;;10.50;5.10;;;;;;;;;;4989543;28;20119;-73
2022/03/01 02:45:20;;;;;;;8.90;4.90;;;;;;;;;;4992608;28;20388;-73
2022/03/01 02:47:46;;;;;;;9.00;4.80;;;;;;;;;;4994271;28;20388;-73
2022/03/01 02:50:12;;;;;;;9.77;4.97;;;;;;;;;;5010753;28;20042;-73
2022/03/01 02:52:37;;;;;;;8.93;5.07;;;;;;;0.46;nan;101694.25;5007817;28;20835;-71
2022/03/01 02:55:04;;;;;;;10.60;5.45;;;;;;;0.35;nan;101668.38;4977977;28;20042;-73
2022/03/01 02:57:29;;;;;;;10.68;5.35;;;;;;;0.34;nan;101679.72;5015756;28;20143;-73
2022/03/01 02:59:55;;;;;;;10.82;5.25;;;;;;;0.46;nan;101707.19;4994746;28;20041;-72
2022/03/01 03:02:21;;;;;;;9.82;5.00;;;;;;;0.44;nan;101697.91;5006880;28;20023;-73
2022/03/01 03:04:47;;;;;;;10.23;5.10;;;;;;;0.39;nan;101703.47;4998820;28;20583;-72
2022/03/01 03:07:12;;;;;;;11.77;6.05;;;;;;;0.38;nan;101710.44;5001836;28;20041;-72
2022/03/01 03:09:38;;;;;;;9.98;5.10;;;;;;;0.38;nan;101709.59;4999537;28;20374;-72
2022/03/01 03:12:04;;;;;;;10.00;5.60;;;;;;;0.21;nan;101674.69;5006136;28;20038;-74
2022/03/01 03:14:30;;;;;;;9.85;5.20;;;;;;;0.40;nan;101697.31;4994438;28;20263;-73
2022/03/01 03:16:56;;;;;;;9.68;5.05;;;;;;;0.24;nan;101684.84;4989182;28;20042;-72
2022/03/01 03:19:21;;;;;;;8.02;5.32;;;;;;;0.11;nan;101673.81;5014200;28;20022;-73
2022/03/01 03:21:47;;;;;;;10.88;5.78;;;;;;;0.19;nan;101676.59;5017172;28;20101;-72
2022/03/01 03:24:13;;;;;;;10.32;5.53;;;;;;;0.26;nan;101695.03;5000322;28;20075;-73
2022/03/01 03:26:39;;;;;;;12.18;5.22;;;;;;;0.12;nan;101685.81;5009845;28;20117;-72
2022/03/01 03:29:09;;;;;;;10.50;5.72;;;;;;;0.04;nan;101676.06;5014992;28;20045;-73
2022/03/01 03:31:39;;;;;;;13.95;6.05;;;;;;;0.10;nan;101700.66;4981802;28;20026;-72
2022/03/01 03:34:08;;;;;;;14.02;6.18;;;;;;;0.10;nan;101698.09;5005081;28;20026;-73
2022/03/01 03:36:37;;;;;;;13.95;5.90;;;;;;;-0.02;nan;101682.59;4989714;28;20141;-72
2022/03/01 03:39:06;;;;;;;16.67;5.95;;;;;;;0.01;nan;101673.75;5006605;28;20049;-73
2022/03/01 03:41:32;;;;;;;13.57;5.68;;;;;;;-0.04;nan;101675.88;5011187;28;20036;-72
2022/03/01 03:43:59;;;;;;;9.30;5.22;;;;;;;0.18;nan;101711.22;5003856;28;20472;-71
2022/03/01 03:46:25;;;;;;;17.02;6.25;;;;;;;0.12;nan;101709.97;5001235;28;20034;-72
2022/03/01 03:48:52;;;;;;;10.20;5.93;;;;;;;0.05;nan;101707.97;5008506;28;20033;-73
2022/03/01 03:51:18;;;;;;;11.38;5.82;;;;;;;-0.14;nan;101685.34;5001798;28;20038;-73
2022/03/01 03:53:44;;;;;;;13.15;6.70;;;;;;;-0.16;nan;101690.63;4992833;28;20479;-73
2022/03/01 03:56:09;;;;;;;13.77;6.80;;;;;;;-0.52;nan;101660.75;5007381;28;20096;-73
2022/03/01 03:58:34;;;;;;;15.80;6.65;;;;;;;-0.30;nan;101707.25;5022041;28;20061;-72
2022/03/01 04:01:00;;;;;;;14.57;7.03;;;;;;;-0.33;nan;101727.41;5009751;28;20034;-72
2022/03/01 04:03:26;;;;;;;17.50;7.20;;;;;;;-0.56;nan;101695.56;5003137;28;20026;-72
2022/03/01 04:05:52;;;;;;;15.50;7.70;;;;;;;-0.44;nan;101728.22;4988791;28;20052;-72
2022/03/01 04:08:18;;;;;;;17.75;8.52;;;;;;;-0.52;nan;101708.13;5000022;28;20046;-71
2022/03/01 04:10:44;;;;;;;19.67;9.52;;;;;;;-0.56;nan;101705.91;5007147;28;20511;-74
2022/03/01 04:13:10;;;;;;;17.90;9.50;;;;;;;-0.58;nan;101703.41;5009444;28;20468;-72
2022/03/01 04:15:36;;;;;;;20.67;8.65;;;;;;;-0.75;nan;101691.81;4994546;28;20037;-73
2022/03/01 04:18:02;;;;;;;15.40;7.82;;;;;;;-0.72;nan;101707.09;5011751;28;20033;-72
2022/03/01 04:20:27;;;;;;;18.88;8.38;;;;;;;-0.63;nan;101712.50;5010337;28;20035;-73
2022/03/01 04:22:53;;;;;;;21.00;9.15;;;;;;;-0.73;nan;101694.28;5010763;28;20042;-74
2022/03/01 04:25:18;;;;;;;16.15;7.90;;;;;;;-0.65;nan;101710.00;4998292;28;20125;-73
2022/03/01 04:27:44;;;;;;;15.18;8.82;;;;;;;-0.52;nan;101718.47;5008116;28;20038;-74
2022/03/01 04:30:11;;;;;;;12.98;7.50;;;;;;;-0.58;nan;101702.59;5000489;28;20046;-73
2022/03/01 04:32:37;;;;;;;14.07;7.47;;;;;;;-0.46;nan;101709.41;5010963;28;20045;-73
2022/03/01 04:35:04;;;;;;;17.77;7.13;;;;;;;-0.33;nan;101715.28;4993871;28;20045;-71
2022/03/01 04:37:30;;;;;;;13.15;7.40;;;;;;;-0.34;nan;101713.59;4990985;28;20042;-73
2022/03/01 04:39:55;;;;;;;14.40;7.78;;;;;;;-0.41;nan;101702.09;5008863;28;20046;-75
2022/03/01 04:42:21;;;;;;;17.92;7.28;;;;;;;-0.22;nan;101717.00;5007929;28;20026;-72
2022/03/01 04:44:46;;;;;;;14.18;7.03;;;;;;;-0.20;nan;101720.28;4994284;28;20041;-73
2022/03/01 04:47:14;;;;;;;13.20;7.20;;;;;;;-0.50;nan;101674.38;5007738;28;20030;-73
2022/03/01 04:49:39;;;;;;;19.17;7.50;;;;;;;-0.41;nan;101683.97;5008344;28;20029;-73
2022/03/01 04:52:05;;;;;;;13.98;7.22;;;;;;;-0.34;nan;101705.03;5004885;28;20030;-72
2022/03/01 04:54:30;;;;;;;17.70;8.68;;;;;;;-0.36;nan;101691.38;4989333;28;20504;-73
2022/03/01 04:56:56;;;;;;;16.25;7.75;;;;;;;-0.36;nan;101692.22;5012732;28;20033;-73
2022/03/01 04:59:21;;;;;;;24.25;9.50;;;;;;;-0.22;nan;101710.06;4996141;28;20038;-74
2022/03/01 05:01:47;;;;;;;22.95;10.45;;;;;;;-0.25;nan;101710.28;4994704;28;20037;-73
2022/03/01 05:04:12;;;;;;;21.30;10.07;;;;;;;-0.18;nan;101715.00;4988434;28;20083;-74
2022/03/01 05:06:38;;;;;;;29.17;12.30;;;;;;;-0.27;nan;101695.84;5005725;28;20045;-73
2022/03/01 05:09:03;;;;;;;28.15;11.52;;;;;;;-0.29;nan;101688.22;5005759;28;20041;-73
2022/03/01 05:11:29;;;;;;;25.33;10.70;;;;;;;-0.17;nan;101709.69;4989582;28;20113;-73
2022/03/01 05:13:54;;;;;;;24.23;10.90;;;;;;;-0.14;nan;101712.06;4999746;28;20057;-73
2022/03/01 05:16:20;;;;;;;28.20;11.10;;;;;;;-0.29;nan;101685.63;5005764;28;20045;-73
2022/03/01 05:18:45;;;;;;;23.02;10.55;;;;;;;-0.33;nan;101680.81;5012933;28;20034;-72
2022/03/01 05:21:10;;;;;;;25.58;10.70;;;;;;;-0.26;nan;101693.13;5008968;28;20030;-73
2022/03/01 05:23:36;;;;;;;23.77;11.07;;;;;;;-0.20;nan;101706.53;4988525;28;20041;-73
2022/03/01 05:26:01;;;;;;;26.13;11.00;;;;;;;-0.31;nan;101684.91;4985289;28;20116;-73
2022/03/01 05:28:27;;;;;;;37.15;14.75;;;;;;;-0.30;nan;101690.91;5002455;28;20129;-73
2022/03/01 05:30:52;;;;;;;29.17;12.50;;;;;;;-0.16;nan;101713.94;5006087;28;20111;-72
2022/03/01 05:33:18;;;;;;;22.33;10.88;;;;;;;-0.19;nan;101709.00;4990434;28;20053;-74
2022/03/01 05:35:44;;;;;;;19.70;9.60;;;;;;;-0.29;nan;101695.97;4976355;28;20033;-73
2022/03/01 05:38:10;;;;;;;20.15;10.07;;;;;;;-0.31;nan;101687.50;4988137;28;20065;-73
2022/03/01 05:40:37;;;;;;;17.83;9.43;;;;;;;-0.28;nan;101702.78;5006333;28;20030;-73
2022/03/01 05:43:04;;;;;;;21.98;9.20;;;;;;;-0.17;nan;101714.03;4986276;28;20057;-73
2022/03/01 05:45:30;;;;;;;15.60;8.30;;;;;;;-0.29;nan;101695.13;5008463;28;20056;-73
2022/03/01 05:47:56;;;;;;;15.45;8.80;;;;;;;-0.33;nan;101686.81;5005330;28;20037;-72
2022/03/01 05:50:22;;;;;;;23.33;9.07;;;;;;;-0.25;nan;101707.72;5006545;28;20033;-74
2022/03/01 05:52:48;;;;;;;20.55;9.18;;;;;;;-0.45;nan;101672.25;4988852;28;20049;-73
2022/03/01 05:55:14;;;;;;;21.85;8.60;;;;;;;-0.21;nan;101710.91;5006203;28;20136;-75
2022/03/01 05:57:40;;;;;;;15.68;8.20;;;;;;;-0.28;nan;101707.97;4999797;28;20207;-74
2022/03/01 06:00:09;;;;;;;14.60;7.95;;;;;;;-0.17;nan;101712.28;5006161;28;20042;-75
2022/03/01 06:02:34;;;;;;;16.60;8.05;;;;;;;-0.12;nan;101724.84;4989059;28;20038;-73
2022/03/01 06:05:00;;;;;;;20.75;9.30;;;;;;;-0.15;nan;101712.16;4984424;28;20042;-74
2022/03/01 06:07:25;;;;;;;21.50;9.35;;;;;;;-0.09;nan;101709.91;5006490;28;20096;-75
2022/03/01 06:09:51;;;;;;;16.65;9.00;;;;;;;-0.14;nan;101698.28;5011082;28;20057;-73
2022/03/01 06:12:17;;;;;;;18.95;8.70;;;;;;;-0.12;nan;101693.78;5016158;28;20042;-74
2022/03/01 06:14:42;;;;;;;19.58;8.43;;;;;;;-0.07;nan;101692.50;4999885;28;20116;-74
2022/03/01 06:17:08;;;;;;;20.83;9.38;;;;;;;0.05;nan;101708.81;5009469;28;20033;-73
2022/03/01 06:19:33;;;;;;;22.88;9.80;;;;;;;0.05;nan;101700.19;4987437;28;20065;-74
2022/03/01 06:21:59;;;;;;;19.58;9.85;;;;;;;-0.03;nan;101686.09;5007231;28;20128;-74
2022/03/01 06:24:25;;;;;;;20.90;9.85;;;;;;;0.08;nan;101695.59;5005203;28;20030;-74
2022/03/01 06:26:50;;;;;;;44.88;15.85;;;;;;;0.06;nan;101692.31;4990393;28;20088;-73
2022/03/01 06:29:16;;;;;;;25.08;10.50;;;;;;;0.06;nan;101689.72;5010829;28;20030;-73
2022/03/01 06:31:41;;;;;;;23.45;10.05;;;;;;;0.24;nan;101710.72;5009525;28;20488;-73
2022/03/01 06:34:07;;;;;;;19.63;10.00;;;;;;;0.24;nan;101710.72;5001666;28;20041;-73
2022/03/01 06:36:32;;;;;;;20.45;9.68;;;;;;;0.31;nan;101721.41;5001412;28;20034;-74
2022/03/01 06:38:58;;;;;;;17.17;8.23;;;;;;;0.33;nan;101720.31;5016531;28;20026;-74
2022/03/01 06:41:23;;;;;;;18.67;8.55;;;;;;;0.26;nan;101701.03;5005706;28;20026;-74
2022/03/01 06:43:49;;;;;;;17.45;8.00;;;;;;;0.37;nan;101711.34;5016689;28;20100;-74
2022/03/01 06:46:14;;;;;;;17.02;7.85;;;;;;;0.36;nan;101701.97;5019999;28;20377;-73
2022/03/01 06:48:40;;;;;;;18.17;7.60;;;;;;;0.53;nan;101718.72;5021007;28;20065;-75
2022/03/01 06:51:07;;;;;;;15.00;6.78;;;;;;;0.44;nan;101690.13;5015064;28;20041;-75
2022/03/01 06:53:34;;;;;;;13.05;6.60;;;;;;;0.64;nan;101715.22;5013655;28;20472;-75
2022/03/01 06:56:00;;;;;;;12.10;6.68;;;;;;;0.70;nan;101713.91;5001081;28;20030;-73
2022/03/01 06:58:26;;;;;;;14.23;7.03;;;;;;;0.68;nan;101697.66;5011059;28;20037;-73
2022/03/01 07:00:52;;;;;;;12.70;6.97;;;;;;;0.76;nan;101705.59;4993944;28;20041;-73
2022/03/01 07:03:17;;;;;;;19.75;8.70;;;;;;;0.82;nan;101712.88;5009671;28;20475;-74
2022/03/01 07:05:44;;;;;;;17.83;8.23;;;;;;;0.93;nan;101717.16;5011132;28;20065;-73
2022/03/01 07:08:10;;;;;;;19.60;8.23;;;;;;;0.97;nan;101716.75;4986767;28;20046;-73
2022/03/01 07:10:36;;;;;;;24.00;8.82;;;;;;;0.97;nan;101715.94;4988685;28;20083;-74
2022/03/01 07:13:01;;;;;;;21.40;8.25;;;;;;;0.95;nan;101713.47;5009728;28;20022;-73
2022/03/01 07:15:27;;;;;;;24.27;8.65;;;;;;;0.94;nan;101717.03;4993557;28;20091;-73
2022/03/01 07:17:52;;;;;;;20.40;9.20;;;;;;;0.58;nan;101656.13;5007864;28;20396;-73
2022/03/01 07:20:17;;;;;;;22.55;9.68;;;;;;;0.96;nan;101719.47;4991624;28;20041;-70
2022/03/01 07:22:43;;;;;;;25.65;8.57;;;;;;;0.88;nan;101717.53;4992486;28;20038;-73
2022/03/01 07:25:09;;;;;;;22.23;8.07;;;;;;;0.91;nan;101724.22;5007529;28;20041;-71
2022/03/01 07:27:35;;;;;;;17.08;8.25;;;;;;;0.81;nan;101719.00;4988452;28;20207;-73
2022/03/01 07:30:02;;;;;;;19.13;8.82;;;;;;;0.85;nan;101722.97;4982026;28;20057;-73
2022/03/01 07:32:28;;;;;;;22.83;8.63;;;;;;;0.77;nan;101708.06;5011094;28;20033;-72
2022/03/01 07:34:53;;;;;;;22.88;10.27;;;;;;;0.68;nan;101695.06;5007035;28;20026;-72
2022/03/01 07:37:19;;;;;;;20.75;9.13;;;;;;;0.77;nan;101713.25;4967380;28;20058;-72
2022/03/01 07:39:44;;;;;;;18.33;8.38;;;;;;;0.85;nan;101717.78;5015014;28;20041;-72
2022/03/01 07:42:10;;;;;;;21.45;9.90;;;;;;;0.88;nan;101714.13;5001411;28;20040;-71
2022/03/01 07:44:37;;;;;;;20.25;8.82;;;;;;;0.60;nan;101665.41;5004451;28;20034;-73
2022/03/01 07:47:06;;;;;;;18.25;8.85;;;;;;;0.97;nan;101708.97;5004429;28;20506;-71
2022/03/01 07:49:32;;;;;;;17.92;9.13;;;;;;;0.83;nan;101686.78;4999592;28;20034;-70
2022/03/01 07:51:58;;;;;;;19.33;8.88;;;;;;;1.08;nan;101709.84;5008209;28;20514;-71
2022/03/01 07:54:23;;;;;;;20.92;9.57;;;;;;;1.08;nan;101702.91;5005971;28;20029;-72
2022/03/01 07:56:49;;;;;;;21.52;10.80;;;;;;;1.13;nan;101705.09;5011972;28;20557;-72
2022/03/01 07:59:14;;;;;;;26.00;11.10;;;;;;;1.14;nan;101691.16;5012969;28;20040;-71
2022/03/01 08:01:39;;;;;;;21.45;9.70;;;;;;;1.33;nan;101703.38;5005292;28;20030;-73
2022/03/01 08:04:05;;;;;;;25.05;10.15;;;;;;;1.16;nan;101671.09;5004936;28;20037;-72
2022/03/01 08:06:30;;;;;;;22.15;9.90;;;;;;;1.46;nan;101710.00;5005832;28;20956;-71
2022/03/01 08:08:56;;;;;;;20.55;9.38;;;;;;;1.57;nan;101714.22;5008604;28;20112;-71
2022/03/01 08:11:21;;;;;;;16.67;7.90;;;;;;;1.65;nan;101714.41;5008726;28;20537;-71
2022/03/01 08:13:46;;;;;;;21.33;8.80;;;;;;;1.47;nan;101670.09;4996837;28;20045;-72
2022/03/01 08:16:13;;;;;;;20.05;8.95;;;;;;;1.79;nan;101707.97;4977935;28;20045;-71
2022/03/01 08:18:38;;;;;;;20.48;8.73;;;;;;;1.90;nan;101713.06;5012544;28;20129;-73
2022/03/01 08:21:06;;;;;;;15.93;8.63;;;;;;;1.97;nan;101707.34;4990972;28;20117;-71
2022/03/01 08:23:32;;;;;;;15.32;7.43;;;;;;;2.00;nan;101696.66;5005457;28;20041;-71
2022/03/01 08:25:57;;;;;;;18.67;8.20;;;;;;;2.17;nan;101708.16;5002922;28;20056;-72
2022/03/01 08:28:23;;;;;;;15.98;8.10;;;;;;;2.21;nan;101693.94;5000636;28;20045;-71
2022/03/01 08:30:49;;;;;;;16.40;8.02;;;;;;;2.36;nan;101707.31;4987509;28;20053;-70
2022/03/01 08:33:18;;;;;;;15.30;7.88;;;;;;;2.36;nan;101687.34;4991783;28;20472;-74
2022/03/01 08:35:44;;;;;;;13.65;7.10;;;;;;;2.57;nan;101704.56;4999718;28;20041;-73
2022/03/01 08:38:09;;;;;;;16.15;7.40;;;;;;;2.68;nan;101704.38;5008600;28;20056;-73
2022/03/01 08:40:39;;;;;;;15.07;7.07;;;;;;;2.72;nan;101690.94;4992451;28;20036;-75
2022/03/01 08:43:07;;;;;;;16.38;6.78;;;;;;;2.86;nan;101699.28;5004752;28;20054;-74
2022/03/01 08:45:33;;;;;;;13.98;6.03;;;;;;;2.91;nan;101699.66;4989340;28;20496;-74
2022/03/01 08:47:59;;;;;;;12.25;7.05;;;;;;;2.79;nan;101660.00;5008204;28;20037;-75
2022/03/01 08:50:25;;;;;;;12.63;5.72;;;;;;;3.11;nan;101692.59;4989963;28;20037;-74
2022/03/01 08:52:50;;;;;;;11.07;4.65;;;;;;;3.24;nan;101702.69;5009817;28;20034;-74
2022/03/01 08:55:16;;;;;;;9.02;4.40;;;;;;;3.16;nan;101691.22;5007315;28;20049;-73
2022/03/01 08:57:42;;;;;;;10.15;5.00;;;;;;;3.33;nan;101700.03;5006179;28;20026;-76
2022/03/01 09:00:10;;;;;;;6.18;3.80;;;;;;;3.41;nan;101710.53;5010985;28;20065;-74
2022/03/01 09:02:35;;;;;;;7.13;3.90;;;;;;;3.34;nan;101680.00;4996234;28;20121;-74
2022/03/01 09:05:02;;;;;;;7.45;3.83;;;;;;;3.55;nan;101705.81;5003623;28;20116;-74
2022/03/01 09:07:27;;;;;;;7.60;4.00;;;;;;;3.62;nan;101706.84;5005818;28;20056;-75
2022/03/01 09:09:53;;;;;;;8.27;4.22;;;;;;;3.68;nan;101706.25;5011103;28;20030;-73
2022/03/01 09:12:18;;;;;;;8.70;4.43;;;;;;;3.73;nan;101713.63;4994038;28;20021;-73
2022/03/01 09:14:44;;;;;;;11.43;5.15;;;;;;;3.70;nan;101682.66;4987387;28;20034;-74
2022/03/01 09:17:10;;;;;;;11.25;4.90;;;;;;;3.88;nan;101704.34;4977521;28;20125;-73
2022/03/01 09:19:35;;;;;;;8.65;4.57;;;;;;;3.74;nan;101663.19;5009121;28;20066;-72
2022/03/01 09:22:02;;;;;;;7.72;3.05;;;;;;;3.97;nan;101685.19;5007719;28;20038;-73
2022/03/01 09:24:27;;;;;;;7.38;2.55;;;;;;;4.16;nan;101699.84;5005938;28;20475;-74
2022/03/01 09:26:53;;;;;;;7.43;3.00;;;;;;;4.18;nan;101689.28;4988734;28;20048;-73
2022/03/01 09:29:20;;;;;;;5.40;2.92;;;;;;;4.23;nan;101689.66;5007187;28;20061;-73
2022/03/01 09:31:45;;;;;;;9.75;2.95;;;;;;;4.28;nan;101687.41;4979879;28;20100;-73
2022/03/01 09:34:11;;;;;;;3.85;2.42;;;;;;;4.31;nan;101689.72;4998739;28;20033;-74
2022/03/01 09:36:36;;;;;;;7.13;2.83;;;;;;;4.34;nan;101688.59;5005248;28;20468;-75
2022/03/01 09:39:02;;;;;;;8.27;2.50;;;;;;;4.49;nan;101697.50;4992938;28;20053;-73
2022/03/01 09:41:27;;;;;;;5.20;2.45;;;;;;;4.37;nan;101663.03;4997931;28;20033;-73
2022/03/01 09:43:54;;;;;;;6.65;2.60;;;;;;;4.40;nan;101665.31;5000697;28;20026;-72
2022/03/01 09:46:20;;;;;;;6.22;2.80;;;;;;;4.62;nan;101687.50;5003859;28;20392;-72
2022/03/01 09:48:46;;;;;;;6.70;3.13;;;;;;;4.68;nan;101683.44;5013001;28;20041;-72
2022/03/01 09:51:11;;;;;;;4.68;2.78;;;;;;;4.62;nan;101657.94;5008800;28;20045;-72
2022/03/01 09:53:41;;;;;;;5.22;2.70;;;;;;;4.79;nan;101674.50;4980779;28;20034;-73
2022/03/01 09:56:09;;;;;;;7.22;2.75;;;;;;;4.81;nan;101670.81;5009840;28;20041;-72
2022/03/01 09:58:35;;;;;;;10.65;2.92;;;;;;;4.79;nan;101669.28;5008079;28;20026;-72
2022/03/01 10:01:01;;;;;;;4.18;2.92;;;;;;;4.74;nan;101643.69;5005024;28;20117;-74
2022/03/01 10:03:28;;;;;;;8.55;3.35;;;;;;;4.93;nan;101662.69;5008350;28;20105;-73
2022/03/01 10:05:53;;;;;;;7.13;3.22;;;;;;;4.87;nan;101638.84;5006766;28;20040;-74
2022/03/01 10:08:21;;;;;;;8.68;3.72;;;;;;;5.04;nan;101649.34;4997529;28;20042;-74
2022/03/01 10:10:52;;;;;;;5.53;3.63;;;;;;;5.17;nan;101648.91;4977800;28;20484;-73
2022/03/01 10:13:23;;;;;;;7.88;3.78;;;;;;;5.13;nan;101635.34;5006258;28;20064;-74
2022/03/01 10:16:10;;;;;;;8.02;3.60;;;;;;;5.14;nan;101630.94;5002003;28;20180;-74
2022/03/01 10:18:38;;;;;;;7.05;3.53;;;;;;;5.26;nan;101646.16;4986949;28;20369;-74
2022/03/01 10:21:09;;;;;;;6.43;3.33;;;;;;;5.18;nan;101635.69;5002853;28;20030;-75
2022/03/01 10:23:35;;;;;;;7.18;3.67;;;;;;;5.08;nan;101622.78;5006967;28;20034;-74
2022/03/01 10:26:17;;;;;;;10.25;3.58;;;;;;;5.06;nan;101622.13;5014534;28;20030;-74
2022/03/01 10:28:43;;;;;;;8.85;3.85;;;;;;;5.18;nan;101633.09;5003854;28;20034;-74
2022/03/01 10:31:13;;;;;;;7.03;3.30;;;;;;;5.07;nan;101613.28;5004795;28;20038;-73
2022/03/01 10:34:02;;;;;;;10.20;3.30;;;;;;;5.17;nan;101623.63;4998549;28;20113;-73
2022/03/01 10:36:33;;;;;;;5.32;3.50;;;;;;;5.09;nan;101615.75;4990262;28;20045;-73
2022/03/01 10:39:01;;;;;;;7.43;3.67;;;;;;;5.21;nan;101617.09;5010904;28;20175;-73
2022/03/01 10:41:30;;;;;;;7.82;3.50;;;;;;;5.36;nan;101619.91;4988726;28;20034;-73
2022/03/01 10:43:57;;;;;;;9.60;4.10;;;;;;;5.51;nan;101607.03;5006188;28;20057;-73
2022/03/01 10:46:24;;;;;;;7.18;3.58;;;;;;;5.51;nan;101602.63;4999917;28;20038;-73
2022/03/01 10:49:13;;;;;;;7.30;3.40;;;;;;;5.60;nan;101603.44;4997940;28;20042;-73
2022/03/01 10:51:51;;;;;;;;;;;;;;;5.64;nan;101609.16;5005923;28;20499;-75
2022/03/01 10:54:28;;;;;;;6.82;3.00;;;;;;;5.56;nan;101578.63;4983662;28;19996;-74
2022/03/01 10:56:55;;;;;;;6.07;3.17;;;;;;;5.71;nan;101592.66;5014021;28;20029;-74
2022/03/01 10:59:22;;;;;;;8.68;3.75;;;;;;;5.66;nan;101588.91;4984515;28;20038;-73
2022/03/01 11:01:48;;;;;;;8.70;4.30;;;;;;;5.71;nan;101581.41;4986414;28;20496;-75
2022/03/01 11:04:13;;;;;;;7.05;3.75;;;;;;;5.80;nan;101584.84;5008878;28;20043;-74
2022/03/01 11:06:39;;;;;;;9.68;4.38;;;;;;;5.87;nan;101588.44;5011977;28;20163;-74
2022/03/01 11:09:06;;;;;;;8.02;3.65;;;;;;;5.86;nan;101574.53;5006638;28;20046;-74
2022/03/01 11:11:32;;;;;;;5.95;3.40;;;;;;;5.84;nan;101562.59;5004408;28;20030;-74
2022/03/01 11:13:58;;;;;;;9.85;4.20;;;;;;;5.74;nan;101550.50;5005535;28;20475;-74
2022/03/01 11:16:48;;;;;;;9.25;3.80;;;;;;;5.87;nan;101570.13;5001373;28;20121;-73
2022/03/01 11:19:16;;;;;;;6.30;3.00;;;;;;;5.79;nan;101572.75;5007803;28;20606;-73
2022/03/01 11:21:47;;;;;;;6.05;3.50;;;;;;;5.64;nan;101547.25;5008426;28;20037;-75
2022/03/01 11:24:15;;;;;;;5.90;3.10;;;;;;;5.74;nan;101560.16;4997038;28;20042;-73
2022/03/01 11:26:41;;;;;;;5.68;3.75;;;;;;;5.67;nan;101548.72;4990420;28;20508;-74
2022/03/01 11:29:13;;;;;;;6.60;3.65;;;;;;;5.31;nan;101487.19;5000294;28;20038;-73
2022/03/01 11:31:40;;;;;;;7.18;3.50;;;;;;;5.62;nan;101530.94;4990804;28;20045;-73
2022/03/01 11:34:15;;;;;;;7.40;3.72;;;;;;;5.81;nan;101547.25;5008939;28;20037;-72
2022/03/01 11:37:17;;;;;;;7.80;3.70;;;;;;;5.89;nan;101542.84;5005067;28;20088;-73
2022/03/01 11:39:44;;;;;;;4.40;3.03;;;;;;;6.01;nan;101534.66;5003377;28;20092;-73
2022/03/01 11:42:17;;;;;;;8.07;3.03;;;;;;;6.03;nan;101514.41;5006091;28;20068;-72
2022/03/01 11:44:50;;;;;;;4.63;3.03;;;;;;;6.14;nan;101516.66;5004515;28;20045;-73
2022/03/01 11:47:28;;;;;;;9.32;3.38;;;;;;;6.12;nan;101501.13;5005526;28;20022;-72
2022/03/01 11:49:54;;;;;;;6.22;3.58;;;;;;;6.37;nan;101514.97;5006594;28;20045;-71
2022/03/01 11:52:22;;;;;;;9.95;4.82;;;;;;;6.36;nan;101502.03;5015672;28;20045;-72
2022/03/01 11:54:50;;;;;;;7.55;3.47;;;;;;;6.38;nan;101494.84;5005612;28;20103;-73
2022/03/01 11:57:17;;;;;;;7.13;3.25;;;;;;;6.55;nan;101512.09;5014758;28;20034;-73
2022/03/01 11:59:44;;;;;;;8.52;3.67;;;;;;;6.59;nan;101510.78;5005893;28;20026;-73
2022/03/01 12:02:10;;;;;;;6.13;3.50;;;;;;;6.63;nan;101503.38;5005086;28;20076;-73
2022/03/01 12:05:02;;;;;;;8.93;3.47;;;;;;;6.67;nan;101488.97;5006013;28;20084;-73
2022/03/01 12:07:31;;;;;;;5.78;2.80;;;;;;;6.67;nan;101469.84;4994607;28;20048;-73
2022/03/01 12:10:09;;;;;;;6.82;3.40;;;;;;;6.75;nan;101481.09;5010316;28;20033;-72
2022/03/01 12:12:44;;;;;;;8.15;3.38;;;;;;;6.76;nan;101493.19;5002252;28;20046;-74